Time;durP1;ratioP1;P1;durP2;ratioP2;P2;SDS_P1;SDS_P2;PMS_P1;PMS_P2;Temp;Humidity;BMP_temperature;BMP_pressure;BME280_temperature;BME280_humidity;BME280_pressure;Samples;Min_cycle;Max_cycle;Signal;HPM_P1;HPM_P2
2022/09/18 00:04:26;;;;;;;1.10;0.77;;;11.70;99.90;;;10.00;85.98;99114.69;10285186;28;96572;-88
2022/09/18 00:09:29;;;;;;;1.33;0.80;;;11.70;99.90;;;10.00;86.36;99123.47;10279438;28;96973;-87
2022/09/18 00:14:32;;;;;;;2.47;0.70;;;11.70;99.90;;;10.00;86.51;99130.63;10305170;28;96699;-87
2022/09/18 00:19:35;;;;;;;0.80;0.60;;;11.60;99.90;;;9.98;86.79;99136.13;10319138;28;97278;-88
2022/09/18 00:24:37;;;;;;;3.43;0.80;;;11.60;99.90;;;9.94;87.23;99145.47;10297365;28;97079;-86
2022/09/18 00:29:40;;;;;;;0.93;0.70;;;11.50;99.90;;;9.89;87.80;99161.97;10312128;28;96653;-89
2022/09/18 00:34:43;;;;;;;1.47;0.60;;;11.50;99.90;;;9.86;87.83;99150.91;10292301;28;96715;-89
2022/09/18 00:39:46;;;;;;;2.97;1.00;;;11.50;99.90;;;9.86;87.75;99164.19;10296749;28;96509;-88
2022/09/18 00:44:49;;;;;;;1.40;0.80;;;11.50;99.90;;;9.84;87.90;99152.94;10295578;28;97155;-87
2022/09/18 00:50:11;;;;;;;1.77;1.00;;;11.50;99.90;;;9.86;87.77;99153.56;10277434;28;98297;-91
2022/09/18 00:55:17;;;;;;;1.40;0.67;;;11.50;99.90;;;9.90;87.34;99168.94;10297464;28;96431;-88
2022/09/18 01:00:21;;;;;;;1.30;0.70;;;11.50;99.90;;;9.85;87.06;99152.75;10303970;28;98113;-87
2022/09/18 01:05:56;;;;;;;2.50;1.20;;;11.50;99.90;;;9.88;86.83;99159.50;10281258;28;97340;-88
2022/09/18 01:11:40;;;;;;;2.00;0.90;;;11.50;99.90;;;9.84;86.61;99172.34;10257487;28;96464;-86
2022/09/18 01:16:57;;;;;;;3.67;1.00;;;11.50;99.90;;;9.82;86.19;99173.53;10292558;28;97303;-90
2022/09/18 01:22:30;;;;;;;1.50;0.87;;;11.50;99.90;;;9.78;85.58;99177.56;10302622;28;96599;-87
2022/09/18 01:28:10;;;;;;;2.43;1.00;;;11.40;99.90;;;9.73;84.98;99185.28;10308282;28;96672;-87
2022/09/18 01:33:34;;;;;;;3.13;0.80;;;11.40;99.90;;;9.69;84.32;99184.81;10295628;28;98028;-85
2022/09/18 01:38:56;;;;;;;1.33;0.73;;;11.40;99.90;;;9.65;83.92;99183.53;10293259;28;96743;-86
2022/09/18 01:44:15;;;;;;;1.80;0.90;;;11.30;99.90;;;9.64;83.46;99211.06;10294897;28;97437;-85
2022/09/18 01:49:28;;;;;;;1.13;0.77;;;11.30;99.90;;;9.61;83.09;99214.09;10295187;28;96643;-86
2022/09/18 01:54:37;;;;;;;1.87;0.90;;;11.30;99.90;;;9.57;82.86;99218.13;10309689;28;96635;-85
2022/09/18 02:00:08;;;;;;;1.90;0.70;;;11.30;99.90;;;9.53;82.42;99214.19;10310562;28;97591;-84
2022/09/18 02:05:30;;;;;;;1.97;0.50;;;11.20;99.90;;;9.48;81.78;99208.66;10262133;28;97200;-86
2022/09/18 02:10:39;;;;;;;1.37;0.77;;;11.20;99.90;;;9.43;81.12;99216.31;10294584;28;96463;-86
2022/09/18 02:15:44;;;;;;;0.90;0.63;;;11.10;99.90;;;9.37;81.40;99210.75;10287301;28;96673;-87
2022/09/18 02:20:48;;;;;;;1.60;1.10;;;11.10;99.90;;;9.30;81.12;99206.38;10310690;28;96775;-87
2022/09/18 02:25:59;;;;;;;1.60;0.80;;;11.10;99.90;;;9.27;81.08;99215.50;10294472;28;96433;-86
2022/09/18 02:31:02;;;;;;;1.50;0.63;;;11.00;99.90;;;9.24;81.07;99223.84;10290996;28;96650;-86
2022/09/18 02:36:22;;;;;;;2.40;0.67;;;11.00;99.90;;;9.20;80.56;99234.97;10292981;28;97794;-88
2022/09/18 02:42:20;;;;;;;0.60;0.43;;;10.90;99.90;;;9.10;80.14;99238.69;10276422;28;98942;-86
2022/09/18 02:47:50;;;;;;;2.00;0.87;;;10.90;99.90;;;9.04;79.63;99235.97;10239070;28;96746;-86
2022/09/18 02:53:17;;;;;;;2.13;0.70;;;10.70;99.90;;;8.99;79.46;99235.69;10292962;28;96527;-87
2022/09/18 02:58:38;;;;;;;0.57;0.43;;;10.70;99.90;;;8.94;79.53;99251.31;10276611;28;96511;-85
2022/09/18 03:03:41;;;;;;;1.13;0.45;;;10.60;99.90;;;8.91;79.43;99249.84;10289344;28;97364;-84
2022/09/18 03:08:45;;;;;;;1.30;0.83;;;10.60;99.90;;;8.88;78.82;99254.69;10275051;28;97341;-89
2022/09/18 03:13:47;;;;;;;1.27;0.80;;;10.60;99.90;;;8.85;78.67;99251.38;10286794;28;96776;-85
2022/09/18 03:18:50;;;;;;;1.20;0.60;;;10.50;99.90;;;8.78;78.59;99253.09;10292322;28;98635;-87
2022/09/18 03:23:53;;;;;;;1.57;0.43;;;10.50;99.90;;;8.74;78.78;99286.25;10291951;28;97400;-89
2022/09/18 03:28:56;;;;;;;2.20;0.60;;;10.40;99.90;;;8.68;78.74;99281.66;10291471;28;98092;-85
2022/09/18 03:33:59;;;;;;;3.33;0.80;;;10.40;99.90;;;8.66;78.65;99296.91;10273241;28;97545;-84
2022/09/18 03:39:03;;;;;;;1.33;0.43;;;10.30;99.90;;;8.60;78.43;99297.63;10310915;28;96567;-88
2022/09/18 03:44:05;;;;;;;1.67;0.70;;;10.30;99.90;;;8.57;78.67;99306.72;10293898;28;96495;-88
2022/09/18 03:49:08;;;;;;;0.57;0.43;;;10.20;99.90;;;8.57;78.80;99316.50;10288845;28;98376;-86
2022/09/18 03:54:11;;;;;;;0.90;0.40;;;10.20;99.90;;;8.52;78.81;99325.00;10279700;28;98073;-90
2022/09/18 03:59:14;;;;;;;1.00;0.40;;;10.20;99.90;;;8.51;78.84;99330.44;10289701;28;97198;-87
2022/09/18 04:04:17;;;;;;;0.60;0.50;;;10.20;99.90;;;8.47;79.37;99327.34;10287116;28;98038;-89
2022/09/18 04:09:20;;;;;;;0.93;0.30;;;10.20;99.90;;;8.46;79.03;99332.81;10274110;28;96764;-87
2022/09/18 04:14:23;;;;;;;1.10;0.50;;;10.20;99.90;;;8.44;78.94;99350.69;10316168;28;98219;-89
2022/09/18 04:19:31;;;;;;;0.90;0.40;;;10.10;99.90;;;8.39;79.05;99353.03;10274114;28;98191;-86
2022/09/18 04:24:35;;;;;;;0.80;0.50;;;10.10;99.90;;;8.38;79.39;99361.97;10283171;28;96582;-88
2022/09/18 04:29:37;;;;;;;1.00;0.53;;;10.10;99.90;;;8.38;79.46;99372.56;10305278;28;96621;-87
2022/09/18 04:34:41;;;;;;;0.77;0.47;;;10.10;99.90;;;8.39;79.55;99371.56;10277395;28;96663;-87
2022/09/18 04:39:45;;;;;;;0.63;0.40;;;10.10;99.90;;;8.33;79.59;99368.56;10289479;28;97845;-87
2022/09/18 04:44:48;;;;;;;0.80;0.50;;;10.10;99.90;;;8.35;79.93;99379.00;10268912;28;96573;-87
2022/09/18 04:49:52;;;;;;;0.43;0.37;;;10.10;99.90;;;8.41;79.90;99388.09;10284363;28;97405;-86
2022/09/18 04:54:55;;;;;;;1.40;0.50;;;10.20;99.90;;;8.52;79.86;99398.31;10288779;28;96580;-86
2022/09/18 04:59:58;;;;;;;0.60;0.43;;;10.20;99.90;;;8.61;79.64;99391.94;10274577;28;96672;-88
2022/09/18 05:05:01;;;;;;;1.17;0.43;;;10.30;99.90;;;8.73;79.06;99395.03;10289673;28;96715;-87
2022/09/18 05:10:07;;;;;;;0.53;0.30;;;10.50;99.90;;;8.85;78.51;99393.63;10290774;28;98624;-87
2022/09/18 05:15:11;;;;;;;0.93;0.30;;;10.60;99.90;;;8.97;77.30;99396.69;10284614;28;96986;-84
2022/09/18 05:20:14;;;;;;;1.10;0.47;;;10.70;99.90;;;9.16;76.67;99408.63;10297170;28;96566;-86
2022/09/18 05:25:17;;;;;;;0.83;0.40;;;10.80;99.90;;;9.25;75.83;99400.44;10297371;28;96629;-88
2022/09/18 05:30:22;;;;;;;0.20;0.20;;;10.90;99.90;;;9.28;75.19;99413.31;10317858;28;97326;-88
2022/09/18 05:35:28;;;;;;;1.60;0.37;;;11.00;99.90;;;9.29;74.91;99414.97;10284816;28;97341;-87
2022/09/18 05:40:34;;;;;;;0.80;0.40;;;11.00;99.90;;;9.34;74.11;99417.09;10301972;28;97455;-90
2022/09/18 05:45:37;;;;;;;0.50;0.30;;;11.00;99.90;;;9.47;74.58;99413.81;10315361;28;96770;-88
2022/09/18 05:50:41;;;;;;;0.87;0.30;;;11.20;99.90;;;9.62;74.53;99417.34;10289278;28;98322;-87
2022/09/18 05:55:44;;;;;;;0.13;0.10;;;11.30;99.90;;;9.81;74.01;99411.50;10284033;28;97228;-87
2022/09/18 06:00:49;;;;;;;1.23;0.20;;;11.50;99.90;;;10.05;73.18;99415.72;10315553;28;96822;-87
2022/09/18 06:05:54;;;;;;;0.40;0.20;;;11.70;99.90;;;10.27;72.54;99414.00;10305535;28;97294;-88
2022/09/18 06:11:00;;;;;;;1.90;1.00;;;11.90;99.90;;;10.45;71.54;99414.44;10304760;28;96868;-87
2022/09/18 06:16:03;;;;;;;2.57;0.90;;;12.20;99.80;;;10.51;69.79;99417.38;10290100;28;97283;-90
2022/09/18 06:21:06;;;;;;;2.33;1.30;;;12.20;98.50;;;10.54;68.95;99425.75;10288821;28;96709;-87
2022/09/18 06:26:09;;;;;;;3.47;1.70;;;12.20;98.30;;;10.60;68.90;99434.81;10306717;28;97139;-87
2022/09/18 06:31:16;;;;;;;2.00;0.73;;;12.30;98.00;;;10.63;68.63;99426.50;10294260;28;96729;-87
2022/09/18 06:36:19;;;;;;;0.70;0.50;;;12.30;98.20;;;10.67;69.22;99427.75;10294314;28;96825;-88
2022/09/18 06:41:25;;;;;;;1.00;0.50;;;12.30;98.70;;;10.69;70.04;99437.19;10278063;28;96686;-93
2022/09/18 06:46:28;;;;;;;0.30;0.30;;;12.30;99.20;;;10.76;70.49;99447.91;10310255;28;98007;-93
2022/09/18 06:51:31;;;;;;;1.83;0.50;;;12.40;99.40;;;10.81;70.84;99440.19;10254291;28;96408;-92
2022/09/18 06:56:34;;;;;;;0.50;0.20;;;12.50;99.50;;;10.78;70.55;99445.03;10291349;28;97281;-88
2022/09/18 07:01:36;;;;;;;0.50;0.30;;;12.40;99.30;;;10.72;70.52;99452.75;10285970;28;96783;-92
2022/09/18 07:06:44;;;;;;;1.60;0.20;;;12.40;99.30;;;10.77;71.16;99443.41;10271044;28;96893;-91
2022/09/18 07:11:47;;;;;;;1.07;0.40;;;12.40;99.50;;;10.86;70.47;99464.38;10286433;28;96726;-92
2022/09/18 07:16:50;;;;;;;0.30;0.30;;;12.50;99.10;;;10.92;70.25;99471.59;10315364;28;96618;-88
2022/09/18 07:21:52;;;;;;;1.40;0.30;;;12.60;98.70;;;11.06;69.88;99479.72;10294731;28;96748;-89
2022/09/18 07:26:57;;;;;;;0.50;0.20;;;12.70;98.50;;;11.20;68.49;99479.66;10285664;28;98220;-92
2022/09/18 07:32:00;;;;;;;0.10;0.10;;;12.80;97.30;;;11.35;67.37;99500.88;10291196;28;96631;-89
2022/09/18 07:37:03;;;;;;;0.20;0.10;;;12.90;97.20;;;11.60;66.81;99497.84;10291502;28;96765;-90
2022/09/18 07:42:06;;;;;;;0.27;0.10;;;13.20;96.00;;;11.81;63.57;99487.19;10289388;28;98489;-92
2022/09/18 07:47:11;;;;;;;1.90;0.30;;;13.40;94.70;;;11.91;62.33;99487.66;10289667;28;96672;-93
2022/09/18 07:52:14;;;;;;;0.57;0.10;;;13.60;94.20;;;11.87;61.88;99488.25;10273990;28;96634;-92
2022/09/18 07:57:17;;;;;;;0.20;0.10;;;13.50;93.80;;;11.83;62.51;99498.47;10303484;28;96710;-93
2022/09/18 08:02:20;;;;;;;0.13;0.10;;;13.50;94.20;;;11.76;62.69;99486.94;10282662;28;98386;-92
2022/09/18 08:07:24;;;;;;;0.93;0.20;;;13.40;94.20;;;11.80;63.38;99488.16;10284740;28;97296;-91
2022/09/18 08:12:30;;;;;;;0.20;0.20;;;13.50;94.50;;;11.87;62.69;99497.06;10311859;28;96716;-93
2022/09/18 08:17:33;;;;;;;0.10;0.10;;;13.50;94.20;;;11.92;62.72;99491.97;10290185;28;98636;-92
2022/09/18 08:22:40;;;;;;;0.37;0.20;;;13.60;94.20;;;11.85;61.86;99495.59;10279467;28;96800;-92
2022/09/18 08:27:43;;;;;;;5.97;1.90;;;13.50;93.50;;;11.76;62.03;99493.06;10281597;28;97377;-93
2022/09/18 08:32:46;;;;;;;2.33;0.97;;;13.40;93.40;;;11.74;62.27;99504.91;10286773;28;97984;-91
2022/09/18 08:37:49;;;;;;;1.50;0.30;;;13.40;93.60;;;11.72;61.91;99512.28;10272223;28;97390;-87
2022/09/18 08:43:13;;;;;;;0.50;0.13;;;13.40;93.30;;;11.68;62.26;99506.50;10291414;28;96665;-93
2022/09/18 08:48:26;;;;;;;0.47;0.20;;;13.30;93.50;;;11.66;61.58;99516.53;10277489;28;96604;-90
2022/09/18 08:53:40;;;;;;;0.33;0.20;;;13.30;92.80;;;11.72;60.34;99525.56;10297546;28;97436;-92
2022/09/18 08:58:50;;;;;;;0.60;0.10;;;13.30;91.80;;;11.83;60.31;99519.78;10303707;28;96519;-88
2022/09/18 09:04:13;;;;;;;0.35;0.10;;;13.40;92.10;;;11.97;59.53;99510.84;10292307;28;97346;-91
2022/09/18 09:09:31;;;;;;;0.17;0.10;;;13.60;91.30;;;12.26;58.35;99528.47;10298687;28;97114;-93
2022/09/18 09:15:00;;;;;;;0.10;0.10;;;13.80;90.80;;;12.44;57.54;99501.34;10295050;28;96624;-93
2022/09/18 09:20:47;;;;;;;1.03;0.40;;;14.00;90.00;;;12.72;57.84;99508.44;10274751;28;96786;-90
2022/09/18 09:26:10;;;;;;;0.70;0.30;;;14.30;90.60;;;12.96;57.68;99509.78;10263782;28;97288;-89
2022/09/18 09:31:18;;;;;;;3.33;0.30;;;14.50;90.60;;;12.88;56.91;99515.25;10288231;28;98288;-92
2022/09/18 09:36:27;;;;;;;2.10;0.40;;;14.50;90.00;;;12.73;56.93;99520.75;10289641;28;96569;-92
2022/09/18 09:41:57;;;;;;;1.03;0.20;;;14.40;89.50;;;12.48;57.02;99537.25;10290159;28;96452;-92
2022/09/18 09:47:56;;;;;;;0.30;0.13;;;14.20;89.70;;;12.31;57.32;99528.72;10308344;28;96808;-90
2022/09/18 09:53:06;;;;;;;2.10;0.77;;;14.00;89.20;;;12.26;57.18;99549.78;10281893;28;98168;-92
2022/09/18 09:58:36;;;;;;;0.50;0.20;;;13.90;89.00;;;12.32;57.48;99543.69;10280591;28;96743;-91
2022/09/18 10:04:05;;;;;;;0.47;0.20;;;13.90;89.70;;;12.46;57.73;99541.09;10315923;28;96676;-91
2022/09/18 10:09:51;;;;;;;0.63;0.20;;;14.10;89.90;;;12.52;57.62;99545.66;10319087;28;97767;-89
2022/09/18 10:15:12;;;;;;;0.37;0.10;;;14.10;89.60;;;12.46;57.69;99565.91;10326433;28;97992;-91
2022/09/18 10:20:26;;;;;;;1.45;0.32;;;14.10;89.60;;;12.41;57.93;99552.34;10305315;28;96800;-92
2022/09/18 10:25:45;;;;;;;0.93;0.30;;;14.10;89.90;;;12.44;57.01;99548.47;10295887;28;97443;-86
2022/09/18 10:31:09;;;;;;;0.70;0.33;;;14.10;88.40;;;12.47;57.45;99570.22;10301245;28;98475;-90
2022/09/18 10:36:36;;;;;;;1.00;0.23;;;14.10;88.90;;;12.60;57.98;99564.16;10299752;28;96710;-92
2022/09/18 10:41:39;;;;;;;1.03;0.30;;;14.20;90.10;;;12.87;57.23;99559.78;10323925;28;96686;-91
2022/09/18 10:47:08;;;;;;;0.20;0.10;;;14.50;88.70;;;12.98;55.75;99561.88;10323618;28;96506;-91
2022/09/18 10:52:36;;;;;;;0.60;0.10;;;14.60;86.10;;;13.14;56.07;99571.38;10279502;28;98061;-91
2022/09/18 10:57:45;;;;;;;1.23;0.30;;;14.80;86.70;;;13.36;55.11;99572.09;10292809;28;96826;-90
2022/09/18 11:02:52;;;;;;;1.20;0.10;;;15.00;85.50;;;13.79;54.06;99563.75;10289300;28;96785;-91
2022/09/18 11:07:59;;;;;;;1.13;0.20;;;15.40;84.10;;;14.12;52.46;99540.53;10290361;28;97355;-93
2022/09/18 11:13:03;;;;;;;0.65;0.20;;;15.70;81.30;;;14.32;51.87;99559.22;10292753;28;96895;-93
2022/09/18 11:18:14;;;;;;;0.00;0.00;;;15.80;81.00;;;14.41;51.66;99568.69;10304357;28;96793;-93
2022/09/18 11:23:25;;;;;;;0.52;0.30;;;15.90;80.60;;;14.47;52.27;99556.38;10288872;28;96704;-91
2022/09/18 11:28:31;;;;;;;0.30;0.10;;;16.00;80.70;;;14.48;52.16;99554.50;10293568;28;97171;-91
2022/09/18 11:33:56;;;;;;;0.45;0.17;;;16.00;81.50;;;14.54;51.34;99545.66;10307470;28;96685;-90
2022/09/18 11:39:01;;;;;;;0.52;0.10;;;16.10;79.90;;;14.44;51.17;99549.53;10287231;28;97828;-91
2022/09/18 11:44:26;;;;;;;1.02;0.17;;;16.00;79.00;;;14.20;50.94;99551.00;10292403;28;97164;-94
2022/09/18 11:50:14;;;;;;;3.30;1.27;;;15.80;78.00;;;14.11;51.88;99564.81;10298192;28;98285;-91
2022/09/18 11:55:46;;;;;;;0.77;0.30;;;15.70;79.50;;;13.96;51.57;99543.63;10286703;28;96613;-90
2022/09/18 12:01:15;;;;;;;4.30;2.35;;;15.60;78.70;;;14.17;52.60;99546.09;10300399;28;97224;-89
2022/09/18 12:06:52;;;;;;;1.45;0.68;;;15.70;81.00;;;14.29;51.76;99535.59;10292608;28;96693;-90
2022/09/18 12:12:02;;;;;;;2.33;0.73;;;15.90;79.20;;;14.26;51.78;99529.84;10284429;28;98389;-90
2022/09/18 12:17:36;;;;;;;1.93;0.73;;;15.90;79.30;;;14.39;51.86;99537.81;10274739;28;97215;-93
2022/09/18 12:22:55;;;;;;;0.63;0.20;;;16.00;79.30;;;14.71;51.73;99515.56;10275321;28;96908;-89
2022/09/18 12:28:51;;;;;;;1.38;0.40;;;16.20;79.40;;;15.27;50.10;99508.72;10280833;28;96602;-89
2022/09/18 12:34:02;;;;;;;1.40;0.98;;;16.60;77.20;;;15.60;47.27;99502.34;10312966;28;96678;-91
2022/09/18 12:39:25;;;;;;;;;;;17.10;71.70;;;15.42;46.01;99516.47;10300170;28;98980;-92
2022/09/18 12:45:02;;;;;;;0.20;0.10;;;17.00;70.60;;;15.25;46.67;99521.50;10319454;28;97001;-92
2022/09/18 12:50:13;;;;;;;0.73;0.20;;;16.80;70.60;;;15.12;47.05;99519.72;10282239;28;98465;-88
2022/09/18 12:55:59;;;;;;;0.95;0.32;;;16.70;71.80;;;14.98;46.82;99516.28;10309118;28;96533;-87
2022/09/18 13:01:21;;;;;;;2.28;0.93;;;16.60;70.90;;;15.01;46.07;99515.03;10261896;28;96539;-88
2022/09/18 13:06:40;;;;;;;1.25;0.40;;;16.60;69.30;;;15.12;45.56;99502.84;10294196;28;96978;-90
2022/09/18 13:11:50;;;;;;;0.73;0.30;;;16.70;68.40;;;15.30;45.49;99499.47;10290953;28;97261;-88
2022/09/18 13:17:00;;;;;;;1.13;0.40;;;16.80;68.00;;;15.50;44.65;99505.50;10291162;28;97427;-90
2022/09/18 13:22:16;;;;;;;1.08;0.30;;;17.10;68.00;;;15.44;43.27;99509.03;10310257;28;96575;-90
2022/09/18 13:27:23;;;;;;;0.63;0.30;;;17.10;65.40;;;15.24;43.53;99499.28;10295901;28;96649;-90
2022/09/18 13:32:32;;;;;;;0.93;0.50;;;16.90;65.70;;;15.27;43.97;99524.78;10257284;28;98390;-91
2022/09/18 13:37:41;;;;;;;0.28;0.20;;;16.90;65.00;;;15.15;43.41;99538.03;10292674;28;96619;-92
2022/09/18 13:42:44;;;;;;;1.30;0.38;;;16.80;64.60;;;15.20;43.76;99546.22;10278853;28;97310;-90
2022/09/18 13:48:18;;;;;;;1.17;0.30;;;16.80;65.20;;;15.27;44.54;99532.81;10306219;28;96635;-93
2022/09/18 13:53:39;;;;;;;18.10;4.50;;;16.80;66.50;;;15.35;44.42;99564.66;10284969;28;96643;-94
2022/09/18 13:58:56;;;;;;;2.50;0.88;;;16.90;66.20;;;15.23;45.59;99579.75;10295463;28;96661;-91
2022/09/18 14:03:59;;;;;;;0.30;0.30;;;16.80;68.40;;;15.20;46.14;99572.19;10293266;28;96641;-86
2022/09/18 14:09:43;;;;;;;1.60;0.60;;;16.70;68.50;;;15.20;46.65;99569.50;10294223;28;98731;-89
2022/09/18 14:15:05;;;;;;;0.68;0.20;;;16.80;69.40;;;15.27;47.45;99570.28;10295879;28;96702;-94
2022/09/18 14:20:27;;;;;;;1.15;0.35;;;16.80;70.30;;;15.34;47.56;99565.72;10290973;28;98378;-91
2022/09/18 14:25:50;;;;;;;0.28;0.10;;;16.90;70.20;;;15.31;46.65;99566.16;10298372;28;98614;-92
2022/09/18 14:31:36;;;;;;;0.35;0.10;;;16.90;68.90;;;15.24;46.33;99560.03;10309926;28;98409;-91
2022/09/18 14:36:49;;;;;;;0.35;0.10;;;16.80;68.10;;;15.21;46.59;99558.56;10289651;28;96905;-91
2022/09/18 14:42:32;;;;;;;0.30;0.20;;;16.80;68.90;;;15.23;45.54;99561.03;10275682;28;97176;-86
2022/09/18 14:47:37;;;;;;;1.42;0.20;;;16.80;67.10;;;15.26;46.07;99572.13;10304057;28;97598;-91
2022/09/18 14:52:42;;;;;;;0.30;0.10;;;16.80;68.20;;;15.22;47.07;99560.22;10281120;28;97924;-94
2022/09/18 14:57:59;;;;;;;0.10;0.10;;;16.80;69.20;;;15.09;48.47;99587.03;10282285;28;97441;-89
2022/09/18 15:03:27;;;;;;;1.40;0.45;;;16.70;70.90;;;14.94;49.95;99583.81;10306770;28;96548;-86
2022/09/18 15:08:30;;;;;;;0.20;0.17;;;16.60;72.90;;;14.96;50.54;99590.59;10279644;28;97372;-91
2022/09/18 15:13:36;;;;;;;0.13;0.10;;;16.60;73.10;;;15.02;50.45;99590.78;10274653;28;97194;-90
2022/09/18 15:18:41;;;;;;;0.30;0.15;;;16.70;73.00;;;15.13;50.09;99587.44;10301512;28;98502;-89
2022/09/18 15:23:44;;;;;;;0.80;0.30;;;16.80;72.90;;;15.03;50.40;99577.19;10291274;28;97282;-92
2022/09/18 15:28:50;;;;;;;0.20;0.10;;;16.70;72.80;;;15.15;50.64;99580.84;10270814;28;96744;-87
2022/09/18 15:34:04;;;;;;;0.40;0.20;;;16.80;73.00;;;15.02;49.79;99593.47;10277291;28;98550;-85
2022/09/18 15:39:33;;;;;;;0.28;0.10;;;16.70;72.30;;;14.78;49.71;99584.28;10290625;28;98497;-90
2022/09/18 15:44:36;;;;;;;0.75;0.30;;;16.40;71.60;;;14.71;49.30;99578.94;10254119;28;96650;-89
2022/09/18 15:49:39;;;;;;;0.60;0.25;;;16.40;71.00;;;14.57;49.27;99582.66;10263783;28;96603;-92
2022/09/18 15:55:04;;;;;;;0.30;0.20;;;16.30;71.20;;;14.26;50.06;99612.69;10272243;28;98481;-85
2022/09/18 16:00:23;;;;;;;0.60;0.32;;;16.00;72.10;;;13.91;51.79;99620.88;10281299;28;98118;-90
2022/09/18 16:05:29;;;;;;;1.10;0.30;;;15.60;74.00;;;13.63;53.08;99624.53;10295679;28;96697;-90
2022/09/18 16:10:41;;;;;;;0.75;0.40;;;15.30;75.80;;;13.36;53.96;99625.47;10288847;28;98428;-89
2022/09/18 16:15:46;;;;;;;0.30;0.20;;;15.00;77.00;;;13.15;54.37;99646.91;10273704;28;96491;-93
2022/09/18 16:20:52;;;;;;;4.63;1.23;;;14.80;77.20;;;12.99;54.87;99659.53;10279118;28;96779;-87
2022/09/18 16:26:20;;;;;;;6.27;2.17;;;14.60;78.10;;;12.84;55.37;99651.66;10278632;28;97515;-91
2022/09/18 16:31:31;;;;;;;0.70;0.50;;;14.50;78.60;;;12.70;56.06;99654.41;10270621;28;96565;-90
2022/09/18 16:36:40;;;;;;;3.83;1.40;;;14.40;78.90;;;12.54;56.43;99655.56;10302146;28;96601;-92
2022/09/18 16:41:45;;;;;;;1.30;0.50;;;14.20;79.70;;;12.37;57.18;99644.34;10288050;28;96656;-89
2022/09/18 16:46:51;;;;;;;0.90;0.40;;;14.10;80.20;;;12.27;57.61;99649.19;10283951;28;96630;-93
2022/09/18 16:51:54;;;;;;;0.70;0.40;;;13.90;80.70;;;12.12;58.27;99651.13;10261350;28;98315;-93
2022/09/18 16:57:22;;;;;;;0.70;0.40;;;13.80;81.60;;;11.96;59.01;99645.00;10286122;28;98236;-93
2022/09/18 17:02:25;;;;;;;2.40;1.83;;;13.70;82.60;;;11.88;59.60;99649.66;10295067;28;98173;-91
2022/09/18 17:07:29;;;;;;;1.43;0.97;;;13.60;83.40;;;11.75;60.32;99644.97;10283356;28;98448;-94
2022/09/18 17:12:32;;;;;;;2.00;1.23;;;13.50;83.90;;;11.65;60.89;99639.97;10284573;28;98060;-90
2022/09/18 17:17:38;;;;;;;3.10;2.23;;;13.40;84.40;;;11.56;61.40;99650.91;10316814;28;98716;-90
2022/09/18 17:22:44;;;;;;;1.20;0.90;;;13.30;85.00;;;11.47;62.30;99652.84;10272209;28;97377;-92
2022/09/18 17:27:51;;;;;;;0.97;0.47;;;13.20;86.30;;;11.40;62.95;99644.81;10271360;28;97224;-94
2022/09/18 17:32:54;;;;;;;1.70;0.50;;;13.10;87.10;;;11.35;63.36;99652.50;10292891;28;96742;-93
2022/09/18 17:37:57;;;;;;;1.03;0.30;;;13.10;87.60;;;11.31;64.34;99653.88;10297159;28;98265;-90
2022/09/18 17:43:00;;;;;;;0.73;0.40;;;13.00;89.00;;;11.28;64.98;99656.09;10267404;28;96917;-94
2022/09/18 17:48:04;;;;;;;1.27;0.30;;;13.00;89.70;;;11.27;65.62;99671.22;10282925;28;98624;-91
2022/09/18 17:53:08;;;;;;;0.60;0.30;;;13.00;90.90;;;11.22;66.18;99682.44;10314665;28;98417;-89
2022/09/18 17:58:21;;;;;;;1.40;0.43;;;12.90;90.80;;;11.15;66.82;99665.53;10303806;28;98390;-92
2022/09/18 18:03:27;;;;;;;1.93;0.57;;;12.90;91.60;;;11.25;67.25;99681.22;10273614;28;98699;-94
2022/09/18 18:08:30;;;;;;;0.83;0.40;;;12.90;91.60;;;11.29;67.85;99692.31;10301462;28;98299;-92
2022/09/18 18:13:39;;;;;;;0.53;0.50;;;12.90;92.10;;;11.33;67.92;99702.38;10311076;28;97254;-89
2022/09/18 18:18:45;;;;;;;1.10;0.37;;;13.00;92.40;;;11.40;68.02;99694.53;10281500;28;96919;-92
2022/09/18 18:24:02;;;;;;;1.57;0.60;;;13.00;92.50;;;11.43;68.36;99699.47;10314231;28;97314;-94
2022/09/18 18:29:09;;;;;;;0.53;0.37;;;13.10;93.00;;;11.54;68.51;99709.63;10276830;28;98234;-92
2022/09/18 18:34:12;;;;;;;0.30;0.20;;;13.20;93.10;;;11.61;68.54;99731.00;10315848;28;98438;-91
2022/09/18 18:39:16;;;;;;;0.60;0.30;;;13.20;93.00;;;11.64;68.38;99731.47;10272913;28;97334;-92
2022/09/18 18:44:18;;;;;;;1.03;0.57;;;13.30;93.00;;;11.68;68.50;99726.56;10292662;28;97174;-94
2022/09/18 18:49:22;;;;;;;1.90;0.60;;;13.30;93.20;;;11.65;68.61;99729.63;10278268;28;96671;-95
2022/09/18 18:54:24;;;;;;;1.30;0.40;;;13.30;93.20;;;11.60;69.08;99729.34;10283547;28;97274;-93
2022/09/18 18:59:27;;;;;;;0.90;0.53;;;13.30;93.60;;;11.53;69.36;99722.13;10305727;28;97116;-93
2022/09/18 19:04:33;;;;;;;0.83;0.27;;;13.20;93.70;;;11.45;69.21;99724.84;10285297;28;96761;-91
2022/09/18 19:09:36;;;;;;;0.47;0.27;;;13.10;94.00;;;11.40;68.75;99729.09;10285765;28;97320;-92
2022/09/18 19:14:38;;;;;;;0.43;0.43;;;13.00;93.50;;;11.34;69.01;99722.69;10268776;28;96875;-92
2022/09/18 19:19:41;;;;;;;1.23;0.40;;;13.00;93.70;;;11.32;69.09;99708.72;10297951;28;96733;-92
2022/09/18 19:24:44;;;;;;;0.63;0.47;;;13.00;93.90;;;11.30;69.13;99710.75;10292984;28;96567;-92
2022/09/18 19:29:48;;;;;;;1.50;0.60;;;12.90;93.90;;;11.26;69.83;99717.44;10279706;28;96687;-95
2022/09/18 19:34:51;;;;;;;0.93;0.50;;;12.90;94.10;;;11.21;70.04;99722.47;10302554;28;98212;-91
2022/09/18 19:39:53;;;;;;;0.70;0.40;;;12.90;94.50;;;11.18;70.26;99728.19;10290590;28;96574;-94
2022/09/18 19:45:02;;;;;;;1.20;0.63;;;12.90;94.80;;;11.17;70.44;99732.69;10292277;28;98304;-95
2022/09/18 19:50:15;;;;;;;1.63;0.50;;;12.80;94.50;;;11.14;70.91;99746.31;10279734;28;96611;-89
2022/09/18 19:55:21;;;;;;;1.30;0.50;;;12.90;94.70;;;11.10;71.14;99736.25;10249470;28;96608;-95
2022/09/18 20:00:25;;;;;;;0.70;0.30;;;12.80;94.80;;;11.12;71.41;99743.03;10289088;28;96940;-94
2022/09/18 20:05:28;;;;;;;0.93;0.50;;;12.80;94.90;;;11.16;71.32;99730.22;10267290;28;97274;-91
2022/09/18 20:10:34;;;;;;;0.40;0.27;;;12.90;95.20;;;11.19;71.31;99720.00;10289939;28;96542;-94
2022/09/18 20:15:37;;;;;;;0.23;0.10;;;12.90;95.40;;;11.16;71.40;99715.06;10298255;28;96959;-93
2022/09/18 20:20:41;;;;;;;1.33;0.43;;;12.90;95.40;;;11.16;71.22;99703.63;10292368;28;96613;-95
2022/09/18 20:25:44;;;;;;;1.23;0.60;;;12.90;95.30;;;11.21;71.08;99715.31;10274260;28;96807;-91
2022/09/18 20:30:48;;;;;;;0.97;0.50;;;12.90;95.30;;;11.21;70.93;99702.03;10290032;28;96804;-94
2022/09/18 20:35:56;;;;;;;1.30;0.43;;;13.00;95.50;;;11.21;70.82;99706.53;10284239;28;96556;-94
2022/09/18 20:41:14;;;;;;;0.77;0.40;;;13.00;95.20;;;11.22;70.77;99706.38;10299368;28;96892;-95
2022/09/18 20:46:17;;;;;;;1.23;0.50;;;13.00;95.20;;;11.28;70.80;99710.13;10316157;28;96686;-95
2022/09/18 20:51:31;;;;;;;1.47;0.80;;;13.00;95.10;;;11.26;70.22;99702.31;10294804;28;96534;-95
2022/09/18 20:56:40;;;;;;;1.07;0.50;;;13.00;95.00;;;11.30;70.53;99702.78;10271024;28;96731;-93
2022/09/18 21:01:47;;;;;;;1.10;0.30;;;13.10;95.00;;;11.35;70.31;99692.41;10293763;28;97497;-87
2022/09/18 21:06:54;;;;;;;0.70;0.27;;;13.10;95.00;;;11.42;69.85;99695.97;10298252;28;96585;-89
2022/09/18 21:11:58;;;;;;;0.57;0.30;;;13.10;94.80;;;11.51;69.66;99694.88;10281285;28;97450;-91
2022/09/18 21:17:03;;;;;;;0.73;0.33;;;13.20;94.80;;;11.55;69.06;99689.16;10321826;28;96841;-91
2022/09/18 21:22:06;;;;;;;0.53;0.23;;;13.20;94.90;;;11.61;69.04;99680.44;10250444;28;96591;-90
2022/09/18 21:27:09;;;;;;;0.20;0.10;;;13.30;94.60;;;11.66;68.85;99672.72;10279411;28;97582;-91
2022/09/18 21:32:12;;;;;;;0.60;0.40;;;13.30;94.40;;;11.70;68.42;99677.50;10269187;28;96940;-92
2022/09/18 21:37:15;;;;;;;0.90;0.40;;;13.40;94.30;;;11.74;68.31;99678.75;10304011;28;96691;-88
2022/09/18 21:42:18;;;;;;;0.50;0.30;;;13.40;94.20;;;11.77;68.21;99670.41;10280994;28;97696;-93